Time;durP1;ratioP1;P1;durP2;ratioP2;P2;SDS_P1;SDS_P2;PMS_P1;PMS_P2;Temp;Humidity;BMP_temperature;BMP_pressure;BME280_temperature;BME280_humidity;BME280_pressure;Samples;Min_cycle;Max_cycle;Signal;HPM_P1;HPM_P2
2021/11/05 00:02:12;;;;;;;;;;;;;;;4.62;87.23;96355.19;5072080;28;20020;-75
2021/11/05 00:04:38;;;;;;;;;;;;;;;4.63;87.83;96360.19;5073302;28;20325;-75
2021/11/05 00:07:05;;;;;;;;;;;;;;;4.64;87.59;96356.63;5073277;28;19963;-76
2021/11/05 00:09:31;;;;;;;;;;;;;;;4.65;87.42;96355.63;5072902;28;19963;-75
2021/11/05 00:11:56;;;;;;;;;;;;;;;4.64;86.87;96361.81;5073428;28;20422;-75
2021/11/05 00:14:22;;;;;;;;;;;;;;;4.63;87.03;96365.38;5072864;28;19960;-76
2021/11/05 00:16:51;;;;;;;;;;;;;;;4.63;86.81;96365.38;5073227;28;19959;-75
2021/11/05 00:19:17;;;;;;;;;;;;;;;4.63;87.06;96360.19;5073198;28;19991;-75
2021/11/05 00:21:43;;;;;;;;;;;;;;;4.65;87.17;96370.41;5072564;28;20067;-76
2021/11/05 00:24:09;;;;;;;;;;;;;;;4.64;87.09;96363.59;5073060;28;20042;-75
2021/11/05 00:26:35;;;;;;;;;;;;;;;4.63;87.32;96359.41;5073198;28;19959;-75
2021/11/05 00:29:01;;;;;;;;;;;;;;;4.60;86.99;96360.56;5072987;28;19957;-76
2021/11/05 00:31:27;;;;;;;;;;;;;;;4.56;86.95;96371.50;5072999;28;19953;-75
2021/11/05 00:33:53;;;;;;;;;;;;;;;4.54;87.00;96376.88;5075147;28;20012;-75
2021/11/05 00:36:18;;;;;;;;;;;;;;;4.54;87.43;96381.28;5076276;28;20041;-75
2021/11/05 00:38:45;;;;;;;;;;;;;;;4.54;87.66;96382.06;5076365;28;19960;-75
2021/11/05 00:41:11;;;;;;;;;;;;;;;4.56;87.47;96389.69;5076047;28;19975;-75
2021/11/05 00:43:37;;;;;;;;;;;;;;;4.56;87.33;96382.69;5076607;28;19952;-75
2021/11/05 00:46:03;;;;;;;;;;;;;;;4.56;87.67;96377.50;5076219;28;19965;-75
2021/11/05 00:48:30;;;;;;;;;;;;;;;4.56;87.16;96382.69;5076455;28;19951;-76
2021/11/05 00:50:56;;;;;;;;;;;;;;;4.58;87.24;96382.53;5075978;28;19959;-75
2021/11/05 00:53:21;;;;;;;;;;;;;;;4.60;87.49;96388.31;5076400;28;19979;-76
2021/11/05 00:55:48;;;;;;;;;;;;;;;4.60;87.84;96385.72;5076408;28;19967;-75
2021/11/05 00:58:14;;;;;;;;;;;;;;;4.62;87.72;96391.53;5076265;28;20051;-75
2021/11/05 01:00:39;;;;;;;;;;;;;;;4.63;87.29;96393.16;5075623;28;19962;-75
2021/11/05 01:03:05;;;;;;;;;;;;;;;4.63;86.80;96391.38;5075609;28;20024;-75
2021/11/05 01:05:33;;;;;;;;;;;;;;;4.62;86.84;96394.97;5075910;28;19962;-75
2021/11/05 01:08:00;;;;;;;;;;;;;;;4.63;87.44;96393.97;5076067;28;19960;-76
2021/11/05 01:10:26;;;;;;;;;;;;;;;4.62;87.66;96400.16;5075798;28;20433;-76
2021/11/05 01:12:52;;;;;;;;;;;;;;;4.63;87.68;96393.16;5076254;28;19976;-76
2021/11/05 01:15:18;;;;;;;;;;;;;;;4.63;87.92;96399.16;5075632;28;20403;-77
2021/11/05 01:17:45;;;;;;;;;;;;;;;4.64;87.92;96394.75;5075616;28;19951;-75
2021/11/05 01:20:12;;;;;;;;;;;;;;;4.62;87.86;96396.72;5076022;28;19965;-76
2021/11/05 01:22:38;;;;;;;;;;;;;;;4.62;87.89;96399.34;5075544;28;19978;-76
2021/11/05 01:25:04;;;;;;;;;;;;;;;4.62;88.04;96399.34;5075271;28;19962;-75
2021/11/05 01:27:30;;;;;;;;;;;;;;;4.62;88.19;96399.34;5073925;28;19962;-76
2021/11/05 01:29:59;;;;;;;;;;;;;;;4.63;88.37;96400.97;5075614;28;19962;-75
2021/11/05 01:32:26;;;;;;;;;;;;;;;4.61;88.59;96408.13;5075530;28;19966;-76
2021/11/05 01:34:52;;;;;;;;;;;;;;;4.62;88.97;96404.53;5075174;28;19953;-75
2021/11/05 01:37:18;;;;;;;;;;;;;;;4.61;88.65;96405.53;5075315;28;19952;-75
2021/11/05 01:39:44;;;;;;;;;;;;;;;4.61;88.70;96410.72;5075336;28;20326;-75
2021/11/05 01:42:10;;;;;;;;;;;;;;;4.60;88.98;96409.91;5075007;28;20423;-76
2021/11/05 01:44:36;;;;;;;;;;;;;;;4.63;88.93;96408.75;5074584;28;19951;-75
2021/11/05 01:47:03;;;;;;;;;;;;;;;4.62;88.78;96418.34;5075091;28;20052;-76
2021/11/05 01:49:29;;;;;;;;;;;;;;;4.63;89.09;96413.94;5075011;28;19950;-75
2021/11/05 01:51:56;;;;;;;;;;;;;;;4.64;89.13;96410.34;5073491;28;19965;-75
2021/11/05 01:54:23;;;;;;;;;;;;;;;4.65;89.44;96410.16;5075025;28;19978;-75
2021/11/05 01:56:49;;;;;;;;;;;;;;;4.65;89.38;96411.97;5074915;28;19960;-75
2021/11/05 01:59:26;;;;;;;;;;;;;;;4.66;89.47;96414.41;5074911;28;19945;-75
2021/11/05 02:01:53;;;;;;;;;;;;;;;4.67;89.58;96410.78;5074544;28;19975;-75
2021/11/05 02:04:19;;;;;;;;;;;;;;;4.65;89.20;96414.56;5074544;28;19958;-75
2021/11/05 02:06:46;;;;;;;;;;;;;;;4.64;89.36;96407.75;5074693;28;19957;-75
2021/11/05 02:09:18;;;;;;;;;;;;;;;4.64;89.12;96412.94;5073531;28;19963;-75
2021/11/05 02:11:44;;;;;;;;;;;;;;;4.65;89.67;96415.38;5073619;28;20357;-75
2021/11/05 02:14:15;;;;;;;;;;;;;;;4.66;89.80;96409.19;5074561;28;20409;-75
2021/11/05 02:16:42;;;;;;;;;;;;;;;4.66;89.45;96414.41;5074429;28;19962;-75
2021/11/05 02:19:16;;;;;;;;;;;;;;;4.65;89.84;96417.16;5074269;28;19979;-75
2021/11/05 02:21:43;;;;;;;;;;;;;;;4.67;89.30;96412.59;5074205;28;19971;-75
2021/11/05 02:24:09;;;;;;;;;;;;;;;4.64;89.36;96418.97;5074467;28;20410;-75
2021/11/05 02:26:35;;;;;;;;;;;;;;;4.63;89.52;96422.53;5074265;28;20357;-75
2021/11/05 02:29:02;;;;;;;;;;;;;;;4.63;90.10;96425.13;5074378;28;19954;-75
2021/11/05 02:31:28;;;;;;;;;;;;;;;4.64;89.73;96429.34;5073607;28;20326;-75
2021/11/05 02:33:53;;;;;;;;;;;;;;;4.65;90.01;96427.56;5074171;28;19951;-75
2021/11/05 02:36:19;;;;;;;;;;;;;;;4.66;90.07;96432.56;5074061;28;19958;-75
2021/11/05 02:38:45;;;;;;;;;;;;;;;4.67;89.93;96428.19;5074126;28;20418;-75
2021/11/05 02:41:11;;;;;;;;;;;;;;;4.67;89.84;96431.56;5073953;28;19974;-75
2021/11/05 02:43:37;;;;;;;;;;;;;;;4.65;89.65;96438.75;5072883;28;20043;-75
2021/11/05 02:46:03;;;;;;;;;;;;;;;4.63;89.75;96442.50;5073889;28;20413;-75
2021/11/05 02:48:31;;;;;;;;;;;;;;;4.61;89.62;96442.69;5074208;28;19979;-74
2021/11/05 02:50:57;;;;;;;;;;;;;;;4.60;89.76;96440.25;5074010;28;19965;-76
2021/11/05 02:53:23;;;;;;;;;;;;;;;4.58;89.63;96443.06;5073777;28;19984;-75
2021/11/05 02:55:49;;;;;;;;;;;;;;;4.59;90.08;96456.84;5073152;28;19957;-75
2021/11/05 02:58:16;;;;;;;;;;;;;;;4.60;90.42;96461.03;5072418;28;19950;-75
2021/11/05 03:00:45;;;;;;;;;;;;;;;4.61;90.42;96452.28;5073679;28;19970;-75
2021/11/05 03:03:13;;;;;;;;;;;;;;;4.62;90.38;96462.50;5073824;28;20346;-74
2021/11/05 03:05:39;;;;;;;;;;;;;;;4.63;90.44;96458.91;5072337;28;19954;-75
2021/11/05 03:08:06;;;;;;;;;;;;;;;4.65;90.52;96464.72;5073732;28;19957;-75
2021/11/05 03:10:32;;;;;;;;;;;;;;;4.66;90.51;96465.50;5073582;28;19945;-75
2021/11/05 03:12:58;;;;;;;;;;;;;;;4.69;90.36;96467.78;5073583;28;19957;-75
2021/11/05 03:15:24;;;;;;;;;;;;;;;4.68;90.35;96466.97;5073706;28;19970;-75
2021/11/05 03:17:51;;;;;;;;;;;;;;;4.68;90.36;96466.13;5073777;28;20416;-76
2021/11/05 03:20:17;;;;;;;;;;;;;;;4.70;90.35;96476.38;5058577;28;20316;-75
2021/11/05 03:22:43;;;;;;;;;;;;;;;4.68;90.15;96477.38;5072859;28;19984;-75
2021/11/05 03:25:10;;;;;;;;;;;;;;;4.69;90.28;96478.16;5073403;28;19963;-75
2021/11/05 03:27:36;;;;;;;;;;;;;;;4.67;90.24;96480.13;5073636;28;19959;-75
2021/11/05 03:30:04;;;;;;;;;;;;;;;4.66;90.05;96481.09;5073651;28;19957;-75
2021/11/05 03:32:30;;;;;;;;;;;;;;;4.65;90.14;96485.50;5073374;28;19950;-75
2021/11/05 03:34:56;;;;;;;;;;;;;;;4.65;89.94;96493.28;5073512;28;19947;-75
2021/11/05 03:37:22;;;;;;;;;;;;;;;4.65;89.72;96493.28;5073796;28;19951;-76
2021/11/05 03:39:48;;;;;;;;;;;;;;;4.64;90.18;96496.88;5073434;28;19989;-75
2021/11/05 03:42:14;;;;;;;;;;;;;;;4.64;90.23;96499.50;5073249;28;19979;-75
2021/11/05 03:44:39;;;;;;;;;;;;;;;4.63;90.15;96504.84;5073195;28;20414;-75
2021/11/05 03:47:05;;;;;;;;;;;;;;;4.63;90.33;96494.47;5073253;28;19954;-75
2021/11/05 03:49:31;;;;;;;;;;;;;;;4.61;90.14;96499.81;5073356;28;19961;-75
2021/11/05 03:51:58;;;;;;;;;;;;;;;4.60;90.22;96503.41;5073247;28;20016;-75
2021/11/05 03:54:24;;;;;;;;;;;;;;;4.60;90.11;96512.97;5073314;28;20323;-75
2021/11/05 03:56:50;;;;;;;;;;;;;;;4.59;89.86;96514.78;5073283;28;19959;-75
2021/11/05 03:59:16;;;;;;;;;;;;;;;4.59;89.97;96522.56;5073111;28;19966;-75
2021/11/05 04:01:42;;;;;;;;;;;;;;;4.58;90.00;96520.97;5073177;28;19961;-75
2021/11/05 04:04:08;;;;;;;;;;;;;;;4.56;90.04;96525.53;5073155;28;19966;-75
2021/11/05 04:06:34;;;;;;;;;;;;;;;4.58;89.97;96526.16;5073787;28;20435;-75
2021/11/05 04:09:00;;;;;;;;;;;;;;;4.59;90.45;96535.56;5076912;28;19989;-75
2021/11/05 04:11:26;;;;;;;;;;;;;;;4.59;90.87;96537.34;5076678;28;19957;-75
2021/11/05 04:13:52;;;;;;;;;;;;;;;4.60;90.89;96539.78;5076870;28;19954;-75
2021/11/05 04:16:18;;;;;;;;;;;;;;;4.60;91.15;96541.56;5076770;28;19949;-75
2021/11/05 04:18:44;;;;;;;;;;;;;;;4.62;91.15;96548.22;5076825;28;20016;-75
2021/11/05 04:21:10;;;;;;;;;;;;;;;4.62;90.89;96543.00;5075621;28;19958;-76
2021/11/05 04:23:36;;;;;;;;;;;;;;;4.64;90.90;96550.59;5077246;28;20430;-75
2021/11/05 04:26:03;;;;;;;;;;;;;;;4.64;91.00;96541.03;5076668;28;20002;-75
2021/11/05 04:28:29;;;;;;;;;;;;;;;4.64;90.94;96551.44;5076677;28;19963;-75
2021/11/05 04:30:55;;;;;;;;;;;;;;;4.65;91.00;96557.44;5075604;28;19972;-75
2021/11/05 04:33:21;;;;;;;;;;;;;;;4.67;91.18;96564.06;5076606;28;20055;-75
2021/11/05 04:35:47;;;;;;;;;;;;;;;4.67;91.49;96566.66;5076268;28;20050;-75
2021/11/05 04:38:13;;;;;;;;;;;;;;;4.68;91.07;96564.84;5076676;28;20368;-75
2021/11/05 04:40:39;;;;;;;;;;;;;;;4.70;90.99;96564.69;5076494;28;19959;-75
2021/11/05 04:43:05;;;;;;;;;;;;;;;4.69;90.90;96569.09;5076833;28;19975;-75
2021/11/05 04:45:31;;;;;;;;;;;;;;;4.71;91.38;96566.31;5076271;28;19958;-75
2021/11/05 04:47:57;;;;;;;;;;;;;;;4.71;91.24;96566.31;5076562;28;19958;-75
2021/11/05 04:50:23;;;;;;;;;;;;;;;4.71;91.39;96574.09;5076084;28;19966;-74
2021/11/05 04:52:49;;;;;;;;;;;;;;;4.71;91.18;96568.91;5076378;28;19963;-74
2021/11/05 04:55:16;;;;;;;;;;;;;;;4.72;91.34;96573.91;5076298;28;19981;-75
2021/11/05 04:57:43;;;;;;;;;;;;;;;4.74;91.36;96578.94;5066567;28;19968;-75
2021/11/05 05:00:09;;;;;;;;;;;;;;;4.74;91.37;96574.53;5076211;28;19964;-74
2021/11/05 05:02:35;;;;;;;;;;;;;;;4.73;91.18;96575.53;5075836;28;19971;-75
2021/11/05 05:05:02;;;;;;;;;;;;;;;4.75;91.08;96577.97;5076068;28;19959;-75
2021/11/05 05:07:28;;;;;;;;;;;;;;;4.74;90.94;96587.53;5075702;28;19956;-75
2021/11/05 05:09:54;;;;;;;;;;;;;;;4.74;91.11;96581.53;5075802;28;19954;-74
2021/11/05 05:12:20;;;;;;;;;;;;;;;4.73;91.18;96583.34;5075828;28;19956;-75
2021/11/05 05:14:46;;;;;;;;;;;;;;;4.72;91.20;96589.50;5075824;28;20084;-74
2021/11/05 05:17:12;;;;;;;;;;;;;;;4.73;91.41;96590.31;5075731;28;19962;-75
2021/11/05 05:19:39;;;;;;;;;;;;;;;4.73;91.51;96598.13;5074919;28;19956;-75
2021/11/05 05:22:05;;;;;;;;;;;;;;;4.73;91.02;96598.13;5075249;28;19972;-75
2021/11/05 05:24:30;;;;;;;;;;;;;;;4.73;91.36;96603.31;5074483;28;19955;-75
2021/11/05 05:26:56;;;;;;;;;;;;;;;4.73;91.25;96608.50;5075471;28;20365;-74
2021/11/05 05:29:22;;;;;;;;;;;;;;;4.72;90.79;96609.47;5075725;28;21053;-75
2021/11/05 05:31:49;;;;;;;;;;;;;;;4.73;91.10;96605.91;5075474;28;19960;-75
2021/11/05 05:34:15;;;;;;;;;;;;;;;4.73;91.12;96611.09;5075170;28;20294;-75
2021/11/05 05:36:41;;;;;;;;;;;;;;;4.72;91.01;96610.28;5075285;28;19960;-75
2021/11/05 05:39:06;;;;;;;;;;;;;;;4.73;91.01;96616.31;5075157;28;19959;-75
2021/11/05 05:41:32;;;;;;;;;;;;;;;4.74;91.18;96617.91;5075398;28;19951;-75
2021/11/05 05:43:59;;;;;;;;;;;;;;;4.75;90.85;96620.34;5075200;28;20041;-74
2021/11/05 05:46:24;;;;;;;;;;;;;;;4.75;91.18;96615.13;5075190;28;19962;-75
2021/11/05 05:48:50;;;;;;;;;;;;;;;4.75;90.86;96620.34;5075208;28;19973;-75
2021/11/05 05:51:16;;;;;;;;;;;;;;;4.75;91.02;96622.94;5074841;28;20375;-75
2021/11/05 05:53:42;;;;;;;;;;;;;;;4.75;91.12;96633.31;5075075;28;19984;-75
2021/11/05 05:56:08;;;;;;;;;;;;;;;4.71;90.56;96636.47;5074808;28;19968;-75
2021/11/05 05:58:34;;;;;;;;;;;;;;;4.70;90.88;96638.22;5075373;28;20035;-75
2021/11/05 06:01:00;;;;;;;;;;;;;;;4.69;91.25;96641.81;5075000;28;19957;-75
2021/11/05 06:03:26;;;;;;;;;;;;;;;4.71;91.37;96650.25;5074744;28;19969;-75
2021/11/05 06:05:52;;;;;;;;;;;;;;;4.73;91.45;96652.69;5074994;28;20494;-75
2021/11/05 06:08:18;;;;;;;;;;;;;;;4.75;91.45;96658.50;5075233;28;20039;-75
2021/11/05 06:10:44;;;;;;;;;;;;;;;4.74;90.90;96662.88;5074569;28;20049;-75
2021/11/05 06:13:10;;;;;;;;;;;;;;;4.74;90.99;96669.88;5074659;28;20355;-75
2021/11/05 06:15:36;;;;;;;;;;;;;;;4.73;90.66;96670.88;5074504;28;19958;-75
2021/11/05 06:18:02;;;;;;;;;;;;;;;4.75;91.00;96674.09;5074566;28;19955;-75
2021/11/05 06:20:28;;;;;;;;;;;;;;;4.75;91.46;96674.91;5074988;28;20321;-75
2021/11/05 06:22:54;;;;;;;;;;;;;;;4.74;91.15;96675.84;5074350;28;19969;-75
2021/11/05 06:25:20;;;;;;;;;;;;;;;4.77;91.09;96679.91;5074208;28;19956;-75
2021/11/05 06:27:46;;;;;;;;;;;;;;;4.76;90.82;96684.28;5074316;28;20393;-75
2021/11/05 06:30:12;;;;;;;;;;;;;;;4.76;90.53;96692.09;5074251;28;19960;-75
2021/11/05 06:32:39;;;;;;;;;;;;;;;4.77;90.79;96695.50;5074165;28;19976;-75
2021/11/05 06:35:06;;;;;;;;;;;;;;;4.78;91.18;96702.31;5074208;28;19950;-75
2021/11/05 06:37:32;;;;;;;;;;;;;;;4.80;90.97;96702.94;5074091;28;19966;-75
2021/11/05 06:39:58;;;;;;;;;;;;;;;4.83;91.38;96711.19;5074307;28;20392;-75
2021/11/05 06:42:25;;;;;;;;;;;;;;;4.85;91.51;96714.44;5074231;28;19967;-75
2021/11/05 06:44:51;;;;;;;;;;;;;;;4.87;91.33;96716.84;5073865;28;20327;-75
2021/11/05 06:47:18;;;;;;;;;;;;;;;4.89;91.77;96722.66;5074007;28;20350;-75
2021/11/05 06:49:43;;;;;;;;;;;;;;;4.91;91.49;96725.91;5074255;28;19966;-75
2021/11/05 06:52:09;;;;;;;;;;;;;;;4.92;91.33;96732.72;5074054;28;20005;-75
2021/11/05 06:54:38;;;;;;;;;;;;;;;4.95;91.28;96731.56;5073857;28;19986;-75
2021/11/05 06:57:07;;;;;;;;;;;;;;;4.95;90.91;96740.16;5072708;28;20420;-75
2021/11/05 06:59:34;;;;;;;;;;;;;;;4.96;91.17;96744.41;5073849;28;19943;-76
2021/11/05 07:02:00;;;;;;;;;;;;;;;5.00;91.13;96748.25;5072432;28;20334;-75
2021/11/05 07:04:26;;;;;;;;;;;;;;;5.03;91.14;96752.28;5073520;28;19962;-76
2021/11/05 07:06:53;;;;;;;;;;;;;;;5.04;91.06;96761.69;5073704;28;19962;-75
2021/11/05 07:09:19;;;;;;;;;;;;;;;5.08;91.16;96766.41;5073720;28;19956;-76
2021/11/05 07:11:45;;;;;;;;;;;;;;;5.09;91.51;96777.59;5073730;28;19954;-75
2021/11/05 07:14:11;;;;;;;;;;;;;;;5.13;91.22;96778.06;5073614;28;20041;-76
2021/11/05 07:16:37;;;;;;;;;;;;;;;5.16;91.42;96788.91;5073630;28;19957;-75
2021/11/05 07:19:04;;;;;;;;;;;;;;;5.20;91.40;96791.97;5073807;28;19964;-75
2021/11/05 07:21:30;;;;;;;;;;;;;;;5.23;91.10;96799.44;5073768;28;19958;-75
2021/11/05 07:24:01;;;;;;;;;;;;;;;5.25;90.72;96806.06;5073400;28;19967;-75
2021/11/05 07:26:38;;;;;;;;;;;;;;;5.28;90.92;96807.50;5073439;28;19954;-75
2021/11/05 07:29:05;;;;;;;;;;;;;;;5.32;90.83;96808.75;5073725;28;19961;-75
2021/11/05 07:31:31;;;;;;;;;;;;;;;5.32;90.28;96810.56;5073330;28;20391;-75
2021/11/05 07:33:57;;;;;;;;;;;;;;;5.35;90.46;96815.41;5073417;28;19943;-75
2021/11/05 07:36:23;;;;;;;;;;;;;;;5.40;90.39;96820.91;5073479;28;19957;-75
2021/11/05 07:38:49;;;;;;;;;;;;;;;5.45;90.57;96826.38;5073403;28;20323;-75
2021/11/05 07:41:15;;;;;;;;;;;;;;;5.52;90.61;96840.28;5073539;28;19957;-75
2021/11/05 07:43:41;;;;;;;;;;;;;;;5.54;90.35;96838.31;5077369;28;20410;-75
2021/11/05 07:46:07;;;;;;;;;;;;;;;5.58;89.91;96843.97;5077588;28;20029;-75
2021/11/05 07:48:33;;;;;;;;;;;;;;;5.60;89.46;96847.22;5077395;28;19952;-75
2021/11/05 07:50:59;;;;;;;;;;;;;;;5.62;89.34;96856.47;5077404;28;19964;-75
2021/11/05 07:53:25;;;;;;;;;;;;;;;5.64;89.58;96853.69;5077316;28;19971;-75
2021/11/05 07:55:51;;;;;;;;;;;;;;;5.66;89.05;96862.13;5077370;28;19960;-75
2021/11/05 07:58:17;;;;;;;;;;;;;;;5.60;88.53;96861.03;5075865;28;20046;-75
2021/11/05 08:00:43;;;;;;;;;;;;;;;5.58;89.08;96873.41;5077099;28;20049;-75
2021/11/05 08:03:09;;;;;;;;;;;;;;;5.58;89.32;96870.81;5077102;28;19963;-75
2021/11/05 08:05:35;;;;;;;;;;;;;;;5.56;88.36;96875.38;5076830;28;19952;-75
2021/11/05 08:08:01;;;;;;;;;;;;;;;5.53;89.02;96880.94;5076999;28;20004;-75
2021/11/05 08:10:27;;;;;;;;;;;;;;;5.56;89.94;96885.78;5076735;28;19953;-75
2021/11/05 08:12:53;;;;;;;;;;;;;;;5.60;88.78;96887.03;5076783;28;19996;-75
2021/11/05 08:15:20;;;;;;;;;;;;;;;5.62;88.75;96889.47;5076850;28;20020;-75
2021/11/05 08:17:46;;;;;;;;;;;;;;;5.64;88.10;96895.31;5076854;28;19954;-75
2021/11/05 08:20:12;;;;;;;;;;;;;;;5.61;87.73;96900.88;5075630;28;19962;-75
2021/11/05 08:22:42;;;;;;;;;;;;;;;5.62;88.68;96905.09;5077143;28;19969;-75
2021/11/05 08:25:09;;;;;;;;;;;;;;;5.64;88.72;96903.13;5076959;28;19964;-75
2021/11/05 08:27:35;;;;;;;;;;;;;;;5.68;88.57;96907.00;5076632;28;19957;-76
2021/11/05 08:30:12;;;;;;;;;;;;;;;5.72;87.23;96910.06;5076719;28;19976;-75
2021/11/05 08:32:38;;;;;;;;;;;;;;;5.70;87.04;96912.84;5076695;28;19960;-75
2021/11/05 08:35:05;;;;;;;;;;;;;;;5.73;88.12;96917.66;5076365;28;19948;-74
2021/11/05 08:37:31;;;;;;;;;;;;;;;5.78;88.79;96922.38;5076263;28;19955;-75
2021/11/05 08:39:57;;;;;;;;;;;;;;;5.81;88.76;96924.63;5076639;28;19954;-74
2021/11/05 08:42:24;;;;;;;;;;;;;;;5.84;88.98;96930.28;5076518;28;19964;-74
2021/11/05 08:44:49;;;;;;;;;;;;;;;5.89;88.76;96932.34;5076189;28;19940;-74
2021/11/05 08:47:15;;;;;;;;;;;;;;;5.92;88.77;96929.38;5076122;28;20433;-74
2021/11/05 08:49:41;;;;;;;;;;;;;;;5.95;89.18;96933.50;5076382;28;19955;-74
2021/11/05 08:52:07;;;;;;;;;;;;;;;5.99;89.13;96932.16;5076086;28;19947;-74
2021/11/05 08:54:34;;;;;;;;;;;;;;;6.03;88.47;96943.81;5074768;28;19983;-74
2021/11/05 08:57:00;;;;;;;;;;;;;;;6.06;87.76;96940.84;5076195;28;19951;-74
2021/11/05 08:59:26;;;;;;;;;;;;;;;6.10;88.59;96947.34;5076071;28;20300;-75
2021/11/05 09:01:52;;;;;;;;;;;;;;;6.14;88.00;96951.19;5076202;28;20321;-74
2021/11/05 09:04:18;;;;;;;;;;;;;;;6.14;87.25;96953.81;5075966;28;19977;-74
2021/11/05 09:06:45;;;;;;;;;;;;;;;6.14;87.58;96953.81;5075735;28;19953;-74
2021/11/05 09:09:11;;;;;;;;;;;;;;;6.24;88.58;96961.38;5075919;28;19978;-74
2021/11/05 09:11:38;;;;;;;;;;;;;;;6.32;88.52;96966.50;5075887;28;20318;-74
2021/11/05 09:14:04;;;;;;;;;;;;;;;6.42;88.32;96969.63;5075606;28;19955;-74
2021/11/05 09:16:30;;;;;;;;;;;;;;;6.45;86.92;96971.91;5075747;28;20317;-75
2021/11/05 09:18:57;;;;;;;;;;;;;;;6.49;87.75;96972.38;5075823;28;19951;-74
2021/11/05 09:21:23;;;;;;;;;;;;;;;6.56;88.76;96981.06;5075175;28;20328;-75
2021/11/05 09:23:49;;;;;;;;;;;;;;;6.60;87.87;96974.50;5075575;28;19979;-74
2021/11/05 09:26:16;;;;;;;;;;;;;;;6.64;88.08;96981.00;5075380;28;19953;-74
2021/11/05 09:28:41;;;;;;;;;;;;;;;6.69;87.90;96983.84;5075616;28;19967;-75
2021/11/05 09:31:07;;;;;;;;;;;;;;;6.76;86.90;96989.19;5075484;28;19960;-74
2021/11/05 09:33:33;;;;;;;;;;;;;;;6.84;85.83;96989.06;5075270;28;20005;-74
2021/11/05 09:35:59;;;;;;;;;;;;;;;6.86;84.47;96994.09;5075230;28;19957;-76
2021/11/05 09:38:25;;;;;;;;;;;;;;;6.94;86.98;96998.41;5076168;28;19956;-74
2021/11/05 09:40:51;;;;;;;;;;;;;;;7.01;84.47;96996.69;5075358;28;19956;-74
2021/11/05 09:43:18;;;;;;;;;;;;;;;7.06;85.03;97004.81;5075039;28;19964;-74
2021/11/05 09:45:44;;;;;;;;;;;;;;;7.11;85.99;97005.06;5074969;28;19958;-74
2021/11/05 09:48:10;;;;;;;;;;;;;;;7.17;85.76;97006.94;5075265;28;19958;-74
2021/11/05 09:50:38;;;;;;;;;;;;;;;7.17;85.10;97013.97;5074881;28;20420;-74
2021/11/05 09:53:04;;;;;;;;;;;;;;;7.19;85.40;97018.00;5074730;28;19963;-74
2021/11/05 09:55:33;;;;;;;;;;;;;;;7.20;86.01;97018.78;5075614;28;19989;-74
2021/11/05 09:57:59;;;;;;;;;;;;;;;7.20;85.58;97018.78;5075096;28;19965;-74
2021/11/05 10:00:26;;;;;;;;;;;;;;;7.20;85.22;97024.00;5075114;28;19959;-74
2021/11/05 10:02:53;;;;;;;;;;;;;;;7.19;83.86;97028.44;5074620;28;19972;-74
2021/11/05 10:05:19;;;;;;;;;;;;;;;7.14;84.01;97029.94;5074397;28;19951;-75
2021/11/05 10:07:49;;;;;;;;;;;;;;;7.10;84.89;97032.94;5074748;28;19963;-75
2021/11/05 10:10:21;;;;;;;;;;;;;;;7.15;85.98;97029.78;5075324;28;19956;-74
2021/11/05 10:13:03;;;;;;;;;;;;;;;7.18;84.20;97034.66;5074548;28;19958;-74
2021/11/05 10:15:36;;;;;;;;;;;;;;;7.20;85.14;97039.66;5074421;28;20004;-75
2021/11/05 10:18:07;;;;;;;;;;;;;;;7.28;84.87;97039.56;5074736;28;20405;-75
2021/11/05 10:20:33;;;;;;;;;;;;;;;7.37;83.61;97046.31;5074420;28;20180;-75
2021/11/05 10:23:02;;;;;;;;;;;;;;;7.34;80.59;97041.44;5074442;28;19966;-75
2021/11/05 10:25:28;;;;;;;;;;;;;;;7.36;82.02;97049.09;5074337;28;19967;-75
2021/11/05 10:28:17;;;;;;;;;;;;;;;7.38;82.36;97042.72;5074492;28;20347;-75
2021/11/05 10:30:43;;;;;;;;;;;;;;;7.43;82.96;97045.59;5071419;28;20468;-75
2021/11/05 10:33:10;;;;;;;;;;;;;;;7.50;82.88;97041.25;5074131;28;19955;-75
2021/11/05 10:35:37;;;;;;;;;;;;;;;7.55;82.38;97043.31;5074113;28;19952;-75
2021/11/05 10:38:04;;;;;;;;;;;;;;;7.57;81.43;97050.94;5073900;28;19958;-75
2021/11/05 10:40:36;;;;;;;;;;;;;;;7.56;81.45;97046.72;5074008;28;19946;-75
2021/11/05 10:43:02;;;;;;;;;;;;;;;7.55;80.62;97045.09;5073954;28;19977;-75
2021/11/05 10:45:29;;;;;;;;;;;;;;;7.54;82.97;97046.91;5074114;28;19958;-75
2021/11/05 10:47:55;;;;;;;;;;;;;;;7.58;83.30;97050.78;5074170;28;19962;-75
2021/11/05 10:50:23;;;;;;;;;;;;;;;7.63;82.03;97043.19;5074210;28;20326;-75
2021/11/05 10:52:59;;;;;;;;;;;;;;;7.61;82.75;97055.63;5073838;28;19965;-76
2021/11/05 10:55:37;;;;;;;;;;;;;;;7.60;81.17;97058.41;5062459;28;19948;-75
2021/11/05 10:58:03;;;;;;;;;;;;;;;7.63;83.88;97060.66;5073782;28;19950;-74
2021/11/05 11:00:30;;;;;;;;;;;;;;;7.67;83.89;97059.31;5073764;28;19966;-75
2021/11/05 11:03:07;;;;;;;;;;;;;;;7.73;83.87;97055.97;5074045;28;20444;-74
2021/11/05 11:05:34;;;;;;;;;;;;;;;7.78;83.97;97058.00;5073652;28;19951;-74
2021/11/05 11:08:01;;;;;;;;;;;;;;;7.85;83.24;97057.09;5073623;28;20344;-75
2021/11/05 11:10:31;;;;;;;;;;;;;;;7.90;83.86;97062.56;5073695;28;19958;-74
2021/11/05 11:12:57;;;;;;;;;;;;;;;7.97;82.25;97060.00;5073774;28;19952;-74
2021/11/05 11:15:36;;;;;;;;;;;;;;;8.01;82.38;97058.66;5072609;28;19954;-74
2021/11/05 11:18:05;;;;;;;;;;;;;;;8.04;81.21;97063.50;5072801;28;20419;-74
2021/11/05 11:20:32;;;;;;;;;;;;;;;8.10;82.06;97067.16;5073762;28;20403;-74
2021/11/05 11:23:00;;;;;;;;;;;;;;;8.13;80.09;97057.16;5073550;28;20314;-75
2021/11/05 11:25:26;;;;;;;;;;;;;;;8.16;81.10;97070.84;5073719;28;19954;-74
2021/11/05 11:27:52;;;;;;;;;;;;;;;8.22;81.11;97062.25;5073606;28;19947;-74
2021/11/05 11:30:19;;;;;;;;;;;;;;;8.24;81.27;97061.06;5073411;28;19981;-75
2021/11/05 11:32:51;;;;;;;;;;;;;;;8.28;80.10;97064.13;5073649;28;20396;-75
2021/11/05 11:35:17;;;;;;;;;;;;;;;8.29;79.16;97055.28;5073386;28;20323;-75
2021/11/05 11:37:44;;;;;;;;;;;;;;;8.32;80.88;97067.97;5073941;28;20430;-75
2021/11/05 11:40:11;;;;;;;;;;;;;;;8.40;80.30;97069.63;5073468;28;20329;-75
2021/11/05 11:42:38;;;;;;;;;;;;;;;8.52;79.91;97069.00;5073405;28;20303;-75
2021/11/05 11:45:13;;;;;;;;;;;;;;;8.64;80.38;97061.41;5073110;28;19972;-75
2021/11/05 11:47:47;;;;;;;;;;;;;;;8.68;75.85;97054.81;5073797;28;19961;-75
2021/11/05 11:50:30;;;;;;;;;;;;;;;8.64;77.30;97065.84;5073595;28;19957;-75
2021/11/05 11:53:09;;;;;;;;;;;;;;;8.57;77.67;97060.56;5073689;28;19956;-77
2021/11/05 11:55:38;;;;;;;;;;;;;;;8.53;78.02;97073.22;5073561;28;19957;-75
2021/11/05 11:58:08;;;;;;;;;;;;;;;8.56;77.88;97072.00;5072893;28;19961;-75
2021/11/05 12:00:34;;;;;;;;;;;;;;;8.62;78.99;97073.88;5073169;28;19968;-75
2021/11/05 12:03:03;;;;;;;;;;;;;;;8.69;78.26;97068.69;5072403;28;19962;-76
2021/11/05 12:05:30;;;;;;;;;;;;;;;8.71;76.26;97064.91;5073139;28;19950;-76
2021/11/05 12:08:14;;;;;;;;;;;;;;;8.73;78.50;97067.31;5073082;28;19955;-77
2021/11/05 12:10:40;;;;;;;;;;;;;;;8.72;77.72;97066.50;5073221;28;19963;-75
2021/11/05 12:13:25;;;;;;;;;;;;;;;8.70;77.27;97075.56;5073024;28;19958;-75
2021/11/05 12:16:09;;;;;;;;;;;;;;;8.67;78.08;97079.34;5073221;28;19950;-76
2021/11/05 12:18:53;;;;;;;;;;;;;;;8.63;77.42;97078.13;5073008;28;19959;-76
2021/11/05 12:21:19;;;;;;;;;;;;;;;8.59;77.43;97079.50;5072881;28;19956;-77
2021/11/05 12:23:45;;;;;;;;;;;;;;;8.58;77.92;97087.53;5072969;28;20013;-76
2021/11/05 12:26:11;;;;;;;;;;;;;;;8.52;78.69;97083.84;5073117;28;19965;-76
2021/11/05 12:28:41;;;;;;;;;;;;;;;8.43;77.72;97090.22;5075035;28;19970;-77
2021/11/05 12:31:25;;;;;;;;;;;;;;;8.32;78.95;97089.69;5076461;28;19963;-76
2021/11/05 12:33:52;;;;;;;;;;;;;;;8.24;79.57;97087.19;5076699;28;20339;-75
2021/11/05 12:36:18;;;;;;;;;;;;;;;8.21;79.85;97092.81;5076392;28;19956;-76
2021/11/05 12:39:00;;;;;;;;;;;;;;;8.18;79.53;97093.16;5076452;28;19956;-76
2021/11/05 12:41:26;;;;;;;;;;;;;;;8.13;79.37;97093.72;5075403;28;19949;-76
2021/11/05 12:43:52;;;;;;;;;;;;;;;8.11;78.28;97103.56;5076151;28;19971;-75
2021/11/05 12:46:22;;;;;;;;;;;;;;;8.06;77.28;97095.47;5076230;28;19962;-77
2021/11/05 12:48:49;;;;;;;;;;;;;;;8.08;78.29;97100.50;5076223;28;19972;-76
2021/11/05 12:51:26;;;;;;;;;;;;;;;8.11;78.61;97106.16;5075332;28;19956;-76
2021/11/05 12:54:10;;;;;;;;;;;;;;;8.10;79.38;97103.72;5076109;28;19983;-76
2021/11/05 12:56:38;;;;;;;;;;;;;;;8.10;79.10;97098.50;5076175;28;20310;-76
2021/11/05 12:59:08;;;;;;;;;;;;;;;8.13;80.62;97100.78;5076091;28;19972;-76